sensor_id;sensor_type;location;lat;lon;timestamp;P1;durP1;ratioP1;P2;durP2;ratioP2
74344;SDS011;62776;50.518;6.732;2023-04-03T00:02:32;1.60;;;1.25;;
74344;SDS011;62776;50.518;6.732;2023-04-03T00:05:19;1.88;;;1.40;;
74344;SDS011;62776;50.518;6.732;2023-04-03T00:08:07;1.92;;;1.70;;
74344;SDS011;62776;50.518;6.732;2023-04-03T00:10:54;3.85;;;2.05;;
74344;SDS011;62776;50.518;6.732;2023-04-03T00:13:40;2.35;;;1.42;;
74344;SDS011;62776;50.518;6.732;2023-04-03T00:16:29;2.65;;;1.70;;
74344;SDS011;62776;50.518;6.732;2023-04-03T00:19:15;1.33;;;1.23;;
74344;SDS011;62776;50.518;6.732;2023-04-03T00:22:03;1.55;;;1.42;;
74344;SDS011;62776;50.518;6.732;2023-04-03T00:24:50;2.78;;;1.48;;
74344;SDS011;62776;50.518;6.732;2023-04-03T00:27:40;2.17;;;1.73;;
74344;SDS011;62776;50.518;6.732;2023-04-03T00:30:30;2.13;;;1.83;;
74344;SDS011;62776;50.518;6.732;2023-04-03T00:33:18;3.00;;;2.30;;
74344;SDS011;62776;50.518;6.732;2023-04-03T00:36:08;1.83;;;1.40;;
74344;SDS011;62776;50.518;6.732;2023-04-03T00:38:57;1.77;;;1.67;;
74344;SDS011;62776;50.518;6.732;2023-04-03T00:41:43;2.13;;;1.75;;
74344;SDS011;62776;50.518;6.732;2023-04-03T00:47:29;2.05;;;1.63;;
74344;SDS011;62776;50.518;6.732;2023-04-03T00:50:17;1.83;;;1.50;;
74344;SDS011;62776;50.518;6.732;2023-04-03T00:53:08;4.10;;;1.73;;
74344;SDS011;62776;50.518;6.732;2023-04-03T00:56:02;2.08;;;1.50;;
74344;SDS011;62776;50.518;6.732;2023-04-03T00:58:56;2.40;;;1.50;;
74344;SDS011;62776;50.518;6.732;2023-04-03T01:04:54;2.75;;;1.55;;
74344;SDS011;62776;50.518;6.732;2023-04-03T01:07:54;1.77;;;1.67;;
74344;SDS011;62776;50.518;6.732;2023-04-03T01:10:43;1.50;;;1.40;;
74344;SDS011;62776;50.518;6.732;2023-04-03T01:13:31;2.40;;;1.60;;
74344;SDS011;62776;50.518;6.732;2023-04-03T01:16:18;3.25;;;1.90;;
74344;SDS011;62776;50.518;6.732;2023-04-03T01:19:16;1.77;;;1.65;;
74344;SDS011;62776;50.518;6.732;2023-04-03T01:22:15;2.47;;;1.67;;
74344;SDS011;62776;50.518;6.732;2023-04-03T01:25:16;2.30;;;2.00;;
74344;SDS011;62776;50.518;6.732;2023-04-03T01:28:08;3.42;;;1.77;;
74344;SDS011;62776;50.518;6.732;2023-04-03T01:31:15;2.10;;;1.90;;
74344;SDS011;62776;50.518;6.732;2023-04-03T01:34:05;5.18;;;1.83;;
74344;SDS011;62776;50.518;6.732;2023-04-03T01:36:53;2.20;;;1.88;;
74344;SDS011;62776;50.518;6.732;2023-04-03T01:39:46;2.67;;;1.50;;
74344;SDS011;62776;50.518;6.732;2023-04-03T01:42:34;2.17;;;1.80;;
74344;SDS011;62776;50.518;6.732;2023-04-03T01:45:25;2.25;;;2.05;;
74344;SDS011;62776;50.518;6.732;2023-04-03T01:48:14;2.15;;;1.90;;
74344;SDS011;62776;50.518;6.732;2023-04-03T01:51:04;1.90;;;1.77;;
74344;SDS011;62776;50.518;6.732;2023-04-03T01:53:50;2.30;;;2.10;;
74344;SDS011;62776;50.518;6.732;2023-04-03T01:56:44;1.95;;;1.50;;
74344;SDS011;62776;50.518;6.732;2023-04-03T01:59:37;2.55;;;1.92;;
74344;SDS011;62776;50.518;6.732;2023-04-03T02:05:20;2.13;;;1.80;;
74344;SDS011;62776;50.518;6.732;2023-04-03T02:08:06;3.00;;;2.22;;
74344;SDS011;62776;50.518;6.732;2023-04-03T02:10:55;1.95;;;1.83;;
74344;SDS011;62776;50.518;6.732;2023-04-03T02:13:42;2.28;;;1.90;;
74344;SDS011;62776;50.518;6.732;2023-04-03T02:16:32;2.67;;;1.90;;
74344;SDS011;62776;50.518;6.732;2023-04-03T02:19:20;3.47;;;2.38;;
74344;SDS011;62776;50.518;6.732;2023-04-03T02:22:16;2.45;;;1.92;;
74344;SDS011;62776;50.518;6.732;2023-04-03T02:25:05;1.90;;;1.80;;
74344;SDS011;62776;50.518;6.732;2023-04-03T02:27:55;3.67;;;2.40;;
74344;SDS011;62776;50.518;6.732;2023-04-03T02:30:46;1.90;;;1.70;;
74344;SDS011;62776;50.518;6.732;2023-04-03T02:33:32;3.53;;;2.53;;
74344;SDS011;62776;50.518;6.732;2023-04-03T02:36:21;2.08;;;1.80;;
74344;SDS011;62776;50.518;6.732;2023-04-03T02:39:12;3.42;;;2.10;;
74344;SDS011;62776;50.518;6.732;2023-04-03T02:41:59;3.15;;;1.90;;
74344;SDS011;62776;50.518;6.732;2023-04-03T02:44:45;2.22;;;2.03;;
74344;SDS011;62776;50.518;6.732;2023-04-03T02:47:32;2.35;;;2.15;;
74344;SDS011;62776;50.518;6.732;2023-04-03T02:50:19;2.25;;;1.88;;
74344;SDS011;62776;50.518;6.732;2023-04-03T02:53:06;1.77;;;1.67;;
74344;SDS011;62776;50.518;6.732;2023-04-03T02:55:58;3.17;;;2.15;;
74344;SDS011;62776;50.518;6.732;2023-04-03T02:58:58;3.47;;;2.20;;
74344;SDS011;62776;50.518;6.732;2023-04-03T03:01:56;2.78;;;2.10;;
74344;SDS011;62776;50.518;6.732;2023-04-03T03:04:45;2.05;;;1.90;;
74344;SDS011;62776;50.518;6.732;2023-04-03T03:07:41;2.22;;;1.95;;
74344;SDS011;62776;50.518;6.732;2023-04-03T03:10:27;5.75;;;2.40;;
74344;SDS011;62776;50.518;6.732;2023-04-03T03:13:19;2.58;;;2.22;;
74344;SDS011;62776;50.518;6.732;2023-04-03T03:16:06;2.20;;;2.00;;
74344;SDS011;62776;50.518;6.732;2023-04-03T03:18:53;2.78;;;1.95;;
74344;SDS011;62776;50.518;6.732;2023-04-03T03:21:40;2.92;;;2.40;;
74344;SDS011;62776;50.518;6.732;2023-04-03T03:24:31;2.67;;;2.00;;
74344;SDS011;62776;50.518;6.732;2023-04-03T03:27:23;2.95;;;2.10;;
74344;SDS011;62776;50.518;6.732;2023-04-03T03:30:20;2.33;;;2.13;;
74344;SDS011;62776;50.518;6.732;2023-04-03T03:33:07;2.90;;;2.20;;
74344;SDS011;62776;50.518;6.732;2023-04-03T03:36:02;3.60;;;2.50;;
74344;SDS011;62776;50.518;6.732;2023-04-03T03:38:50;3.13;;;2.05;;
74344;SDS011;62776;50.518;6.732;2023-04-03T03:41:36;2.13;;;2.00;;
74344;SDS011;62776;50.518;6.732;2023-04-03T03:44:23;3.00;;;2.00;;
74344;SDS011;62776;50.518;6.732;2023-04-03T03:47:15;2.85;;;2.65;;
74344;SDS011;62776;50.518;6.732;2023-04-03T03:50:02;2.85;;;2.17;;
74344;SDS011;62776;50.518;6.732;2023-04-03T03:52:50;2.10;;;1.92;;
74344;SDS011;62776;50.518;6.732;2023-04-03T03:55:36;3.25;;;2.00;;
74344;SDS011;62776;50.518;6.732;2023-04-03T03:58:28;3.80;;;2.47;;
74344;SDS011;62776;50.518;6.732;2023-04-03T04:01:17;2.25;;;2.05;;
74344;SDS011;62776;50.518;6.732;2023-04-03T04:04:05;2.22;;;2.00;;
74344;SDS011;62776;50.518;6.732;2023-04-03T04:06:54;2.92;;;2.05;;
74344;SDS011;62776;50.518;6.732;2023-04-03T04:09:42;2.95;;;2.65;;
74344;SDS011;62776;50.518;6.732;2023-04-03T04:12:37;2.40;;;2.20;;
74344;SDS011;62776;50.518;6.732;2023-04-03T04:15:30;3.55;;;2.65;;
74344;SDS011;62776;50.518;6.732;2023-04-03T04:18:17;2.85;;;2.25;;
74344;SDS011;62776;50.518;6.732;2023-04-03T04:21:06;2.95;;;2.15;;
74344;SDS011;62776;50.518;6.732;2023-04-03T04:23:55;3.55;;;2.00;;
74344;SDS011;62776;50.518;6.732;2023-04-03T04:26:45;4.10;;;2.50;;
74344;SDS011;62776;50.518;6.732;2023-04-03T04:29:33;3.28;;;2.58;;
74344;SDS011;62776;50.518;6.732;2023-04-03T04:32:23;2.70;;;2.50;;
74344;SDS011;62776;50.518;6.732;2023-04-03T04:35:10;2.30;;;2.10;;
74344;SDS011;62776;50.518;6.732;2023-04-03T04:38:01;3.65;;;2.80;;
74344;SDS011;62776;50.518;6.732;2023-04-03T04:40:50;4.70;;;2.70;;
74344;SDS011;62776;50.518;6.732;2023-04-03T04:43:38;3.15;;;2.85;;
74344;SDS011;62776;50.518;6.732;2023-04-03T04:46:27;3.50;;;2.60;;
74344;SDS011;62776;50.518;6.732;2023-04-03T04:49:18;4.03;;;2.95;;
74344;SDS011;62776;50.518;6.732;2023-04-03T04:52:07;2.90;;;2.60;;
74344;SDS011;62776;50.518;6.732;2023-04-03T04:54:54;3.30;;;2.65;;
74344;SDS011;62776;50.518;6.732;2023-04-03T04:57:48;3.05;;;2.75;;
74344;SDS011;62776;50.518;6.732;2023-04-03T05:00:42;3.40;;;3.05;;
74344;SDS011;62776;50.518;6.732;2023-04-03T05:03:33;3.10;;;2.80;;
74344;SDS011;62776;50.518;6.732;2023-04-03T05:06:17;3.13;;;2.60;;
74344;SDS011;62776;50.518;6.732;2023-04-03T05:09:03;4.55;;;2.70;;
74344;SDS011;62776;50.518;6.732;2023-04-03T05:11:50;3.60;;;2.95;;
74344;SDS011;62776;50.518;6.732;2023-04-03T05:14:36;3.65;;;2.97;;
74344;SDS011;62776;50.518;6.732;2023-04-03T05:17:23;4.97;;;3.80;;
74344;SDS011;62776;50.518;6.732;2023-04-03T05:20:16;4.15;;;3.22;;
74344;SDS011;62776;50.518;6.732;2023-04-03T05:23:02;3.13;;;2.80;;
74344;SDS011;62776;50.518;6.732;2023-04-03T05:25:49;6.20;;;3.60;;
74344;SDS011;62776;50.518;6.732;2023-04-03T05:28:35;4.05;;;3.65;;
74344;SDS011;62776;50.518;6.732;2023-04-03T05:31:22;3.53;;;3.22;;
74344;SDS011;62776;50.518;6.732;2023-04-03T05:34:14;6.32;;;3.13;;
74344;SDS011;62776;50.518;6.732;2023-04-03T05:37:02;5.22;;;3.38;;
74344;SDS011;62776;50.518;6.732;2023-04-03T05:39:50;5.82;;;3.60;;
74344;SDS011;62776;50.518;6.732;2023-04-03T05:42:37;4.15;;;3.45;;
74344;SDS011;62776;50.518;6.732;2023-04-03T05:45:23;3.70;;;2.72;;
74344;SDS011;62776;50.518;6.732;2023-04-03T05:48:12;3.88;;;3.10;;
74344;SDS011;62776;50.518;6.732;2023-04-03T05:50:59;3.53;;;3.22;;
74344;SDS011;62776;50.518;6.732;2023-04-03T05:53:46;3.83;;;3.00;;
74344;SDS011;62776;50.518;6.732;2023-04-03T05:56:40;3.25;;;2.92;;
74344;SDS011;62776;50.518;6.732;2023-04-03T05:59:27;3.40;;;3.10;;
74344;SDS011;62776;50.518;6.732;2023-04-03T06:02:23;4.50;;;3.03;;
74344;SDS011;62776;50.518;6.732;2023-04-03T06:05:10;3.10;;;2.75;;
74344;SDS011;62776;50.518;6.732;2023-04-03T06:07:57;3.80;;;2.95;;
74344;SDS011;62776;50.518;6.732;2023-04-03T06:10:50;3.53;;;2.60;;
74344;SDS011;62776;50.518;6.732;2023-04-03T06:13:37;3.78;;;2.33;;
74344;SDS011;62776;50.518;6.732;2023-04-03T06:16:24;3.90;;;3.22;;
74344;SDS011;62776;50.518;6.732;2023-04-03T06:19:11;4.78;;;2.83;;
74344;SDS011;62776;50.518;6.732;2023-04-03T06:21:57;3.30;;;2.35;;
74344;SDS011;62776;50.518;6.732;2023-04-03T06:24:46;3.00;;;2.10;;
74344;SDS011;62776;50.518;6.732;2023-04-03T06:27:33;4.18;;;2.63;;
74344;SDS011;62776;50.518;6.732;2023-04-03T06:30:21;3.35;;;3.05;;
74344;SDS011;62776;50.518;6.732;2023-04-03T06:33:09;3.40;;;2.50;;
74344;SDS011;62776;50.518;6.732;2023-04-03T06:35:59;2.53;;;2.33;;
74344;SDS011;62776;50.518;6.732;2023-04-03T06:38:54;5.28;;;3.58;;
74344;SDS011;62776;50.518;6.732;2023-04-03T06:41:42;6.68;;;3.20;;
74344;SDS011;62776;50.518;6.732;2023-04-03T06:44:29;4.22;;;1.85;;
74344;SDS011;62776;50.518;6.732;2023-04-03T06:47:15;4.30;;;2.40;;
74344;SDS011;62776;50.518;6.732;2023-04-03T06:50:02;4.10;;;2.70;;
74344;SDS011;62776;50.518;6.732;2023-04-03T06:52:49;3.22;;;2.15;;
74344;SDS011;62776;50.518;6.732;2023-04-03T06:55:45;2.75;;;2.30;;
74344;SDS011;62776;50.518;6.732;2023-04-03T06:58:32;3.15;;;1.80;;
74344;SDS011;62776;50.518;6.732;2023-04-03T07:01:18;4.07;;;2.15;;
74344;SDS011;62776;50.518;6.732;2023-04-03T07:04:06;2.45;;;1.52;;
74344;SDS011;62776;50.518;6.732;2023-04-03T07:06:53;4.07;;;2.45;;
74344;SDS011;62776;50.518;6.732;2023-04-03T07:09:43;3.20;;;1.98;;
74344;SDS011;62776;50.518;6.732;2023-04-03T07:12:32;3.70;;;1.90;;
74344;SDS011;62776;50.518;6.732;2023-04-03T07:15:20;1.92;;;1.58;;
74344;SDS011;62776;50.518;6.732;2023-04-03T07:18:08;4.95;;;2.17;;
74344;SDS011;62776;50.518;6.732;2023-04-03T07:20:54;2.58;;;1.90;;
74344;SDS011;62776;50.518;6.732;2023-04-03T07:23:43;2.63;;;1.50;;
74344;SDS011;62776;50.518;6.732;2023-04-03T07:26:30;2.65;;;2.00;;
74344;SDS011;62776;50.518;6.732;2023-04-03T07:29:16;4.28;;;1.83;;
74344;SDS011;62776;50.518;6.732;2023-04-03T07:32:02;2.15;;;1.63;;
74344;SDS011;62776;50.518;6.732;2023-04-03T07:34:50;2.65;;;1.90;;
74344;SDS011;62776;50.518;6.732;2023-04-03T07:38:08;2.67;;;1.73;;
74344;SDS011;62776;50.518;6.732;2023-04-03T07:41:02;2.05;;;1.45;;
74344;SDS011;62776;50.518;6.732;2023-04-03T07:43:57;3.05;;;1.52;;
74344;SDS011;62776;50.518;6.732;2023-04-03T07:46:54;3.15;;;2.05;;
74344;SDS011;62776;50.518;6.732;2023-04-03T07:49:41;5.40;;;2.45;;
74344;SDS011;62776;50.518;6.732;2023-04-03T07:52:27;2.10;;;1.58;;
74344;SDS011;62776;50.518;6.732;2023-04-03T07:55:21;2.00;;;1.48;;
74344;SDS011;62776;50.518;6.732;2023-04-03T07:58:19;2.90;;;1.90;;
74344;SDS011;62776;50.518;6.732;2023-04-03T08:01:06;2.47;;;1.83;;
74344;SDS011;62776;50.518;6.732;2023-04-03T08:03:53;2.25;;;1.60;;
74344;SDS011;62776;50.518;6.732;2023-04-03T08:06:42;2.72;;;1.70;;
74344;SDS011;62776;50.518;6.732;2023-04-03T08:09:28;3.92;;;1.50;;
74344;SDS011;62776;50.518;6.732;2023-04-03T08:12:20;2.35;;;1.77;;
74344;SDS011;62776;50.518;6.732;2023-04-03T08:15:07;4.75;;;2.42;;
74344;SDS011;62776;50.518;6.732;2023-04-03T08:17:54;3.20;;;1.80;;
74344;SDS011;62776;50.518;6.732;2023-04-03T08:20:48;2.33;;;1.73;;
74344;SDS011;62776;50.518;6.732;2023-04-03T08:23:41;3.25;;;1.90;;
74344;SDS011;62776;50.518;6.732;2023-04-03T08:29:07;2.78;;;1.30;;
74344;SDS011;62776;50.518;6.732;2023-04-03T08:31:55;4.30;;;1.50;;
74344;SDS011;62776;50.518;6.732;2023-04-03T08:37:27;3.22;;;1.50;;
74344;SDS011;62776;50.518;6.732;2023-04-03T08:40:16;1.67;;;1.35;;
74344;SDS011;62776;50.518;6.732;2023-04-03T08:45:46;3.15;;;1.60;;
74344;SDS011;62776;50.518;6.732;2023-04-03T08:48:41;2.35;;;1.70;;
74344;SDS011;62776;50.518;6.732;2023-04-03T08:51:31;2.45;;;1.58;;
74344;SDS011;62776;50.518;6.732;2023-04-03T08:54:52;2.97;;;1.92;;
74344;SDS011;62776;50.518;6.732;2023-04-03T08:57:53;3.33;;;2.00;;
74344;SDS011;62776;50.518;6.732;2023-04-03T09:04:09;2.47;;;1.48;;
74344;SDS011;62776;50.518;6.732;2023-04-03T09:07:08;2.42;;;1.42;;
74344;SDS011;62776;50.518;6.732;2023-04-03T09:10:10;5.05;;;2.00;;
74344;SDS011;62776;50.518;6.732;2023-04-03T09:13:21;2.20;;;1.17;;
74344;SDS011;62776;50.518;6.732;2023-04-03T09:22:26;3.00;;;1.95;;
74344;SDS011;62776;50.518;6.732;2023-04-03T09:25:17;2.65;;;1.98;;
74344;SDS011;62776;50.518;6.732;2023-04-03T09:28:13;3.47;;;1.70;;
74344;SDS011;62776;50.518;6.732;2023-04-03T09:31:01;2.75;;;1.52;;
74344;SDS011;62776;50.518;6.732;2023-04-03T09:34:03;1.70;;;1.30;;
74344;SDS011;62776;50.518;6.732;2023-04-03T09:37:02;1.25;;;1.00;;
74344;SDS011;62776;50.518;6.732;2023-04-03T09:39:59;1.88;;;1.35;;
74344;SDS011;62776;50.518;6.732;2023-04-03T09:42:55;2.83;;;1.35;;
74344;SDS011;62776;50.518;6.732;2023-04-03T09:45:46;2.25;;;1.20;;
74344;SDS011;62776;50.518;6.732;2023-04-03T09:48:37;2.85;;;1.80;;
74344;SDS011;62776;50.518;6.732;2023-04-03T09:51:28;1.77;;;1.40;;
74344;SDS011;62776;50.518;6.732;2023-04-03T09:54:32;4.13;;;1.70;;
74344;SDS011;62776;50.518;6.732;2023-04-03T09:57:28;1.73;;;1.38;;
74344;SDS011;62776;50.518;6.732;2023-04-03T10:00:24;1.92;;;1.40;;
74344;SDS011;62776;50.518;6.732;2023-04-03T10:03:30;1.80;;;1.27;;
74344;SDS011;62776;50.518;6.732;2023-04-03T10:06:34;2.05;;;1.63;;
74344;SDS011;62776;50.518;6.732;2023-04-03T10:09:34;3.13;;;1.20;;
74344;SDS011;62776;50.518;6.732;2023-04-03T10:12:25;1.88;;;1.38;;
74344;SDS011;62776;50.518;6.732;2023-04-03T10:15:15;3.03;;;1.50;;
74344;SDS011;62776;50.518;6.732;2023-04-03T10:18:10;2.10;;;1.48;;
74344;SDS011;62776;50.518;6.732;2023-04-03T10:21:20;1.80;;;1.38;;
74344;SDS011;62776;50.518;6.732;2023-04-03T10:30:55;2.25;;;2.05;;
74344;SDS011;62776;50.518;6.732;2023-04-03T10:33:55;1.92;;;1.50;;
74344;SDS011;62776;50.518;6.732;2023-04-03T10:37:06;2.33;;;1.48;;
74344;SDS011;62776;50.518;6.732;2023-04-03T10:40:15;2.35;;;1.75;;
74344;SDS011;62776;50.518;6.732;2023-04-03T10:52:22;2.17;;;1.50;;
74344;SDS011;62776;50.518;6.732;2023-04-03T10:55:22;2.63;;;1.58;;
74344;SDS011;62776;50.518;6.732;2023-04-03T10:58:32;2.13;;;1.45;;
74344;SDS011;62776;50.518;6.732;2023-04-03T11:01:32;2.40;;;1.67;;
74344;SDS011;62776;50.518;6.732;2023-04-03T11:04:22;2.70;;;1.27;;
74344;SDS011;62776;50.518;6.732;2023-04-03T11:10:36;1.98;;;1.50;;
74344;SDS011;62776;50.518;6.732;2023-04-03T11:13:34;2.78;;;1.65;;
74344;SDS011;62776;50.518;6.732;2023-04-03T11:16:29;1.52;;;1.42;;
74344;SDS011;62776;50.518;6.732;2023-04-03T11:19:21;2.15;;;1.58;;
74344;SDS011;62776;50.518;6.732;2023-04-03T11:22:43;2.17;;;1.15;;
74344;SDS011;62776;50.518;6.732;2023-04-03T11:25:39;1.77;;;1.48;;
74344;SDS011;62776;50.518;6.732;2023-04-03T11:28:30;1.83;;;1.40;;
74344;SDS011;62776;50.518;6.732;2023-04-03T11:34:29;2.63;;;1.70;;
74344;SDS011;62776;50.518;6.732;2023-04-03T11:40:26;1.85;;;1.50;;
74344;SDS011;62776;50.518;6.732;2023-04-03T11:43:21;1.58;;;1.25;;
74344;SDS011;62776;50.518;6.732;2023-04-03T11:46:13;2.00;;;1.63;;
74344;SDS011;62776;50.518;6.732;2023-04-03T11:49:01;1.67;;;1.40;;
74344;SDS011;62776;50.518;6.732;2023-04-03T11:51:49;1.77;;;1.65;;
74344;SDS011;62776;50.518;6.732;2023-04-03T11:57:43;1.90;;;1.30;;
74344;SDS011;62776;50.518;6.732;2023-04-03T12:09:34;5.05;;;1.85;;
74344;SDS011;62776;50.518;6.732;2023-04-03T12:12:41;1.40;;;1.27;;
74344;SDS011;62776;50.518;6.732;2023-04-03T12:15:44;1.30;;;1.20;;
74344;SDS011;62776;50.518;6.732;2023-04-03T12:18:54;1.38;;;1.25;;
74344;SDS011;62776;50.518;6.732;2023-04-03T12:24:45;3.33;;;1.73;;
74344;SDS011;62776;50.518;6.732;2023-04-03T12:27:38;2.30;;;1.15;;
74344;SDS011;62776;50.518;6.732;2023-04-03T12:30:36;2.00;;;1.70;;
74344;SDS011;62776;50.518;6.732;2023-04-03T12:33:33;1.80;;;1.50;;
74344;SDS011;62776;50.518;6.732;2023-04-03T12:37:01;2.03;;;1.40;;
74344;SDS011;62776;50.518;6.732;2023-04-03T12:42:52;2.45;;;1.90;;
74344;SDS011;62776;50.518;6.732;2023-04-03T12:46:11;1.65;;;1.30;;
74344;SDS011;62776;50.518;6.732;2023-04-03T12:49:30;1.50;;;1.40;;
74344;SDS011;62776;50.518;6.732;2023-04-03T12:52:32;2.10;;;1.48;;
74344;SDS011;62776;50.518;6.732;2023-04-03T12:55:26;1.65;;;1.30;;
74344;SDS011;62776;50.518;6.732;2023-04-03T12:58:25;2.38;;;1.60;;
74344;SDS011;62776;50.518;6.732;2023-04-03T13:01:16;2.63;;;1.42;;
74344;SDS011;62776;50.518;6.732;2023-04-03T13:04:09;1.70;;;1.58;;
74344;SDS011;62776;50.518;6.732;2023-04-03T13:06:58;2.15;;;1.35;;
74344;SDS011;62776;50.518;6.732;2023-04-03T13:09:47;2.38;;;2.17;;
74344;SDS011;62776;50.518;6.732;2023-04-03T13:12:49;2.03;;;1.85;;
74344;SDS011;62776;50.518;6.732;2023-04-03T13:15:45;2.20;;;1.42;;
74344;SDS011;62776;50.518;6.732;2023-04-03T13:18:34;2.60;;;1.60;;
74344;SDS011;62776;50.518;6.732;2023-04-03T13:21:30;2.33;;;1.60;;
74344;SDS011;62776;50.518;6.732;2023-04-03T13:24:20;1.83;;;1.10;;
74344;SDS011;62776;50.518;6.732;2023-04-03T13:27:10;1.58;;;1.30;;
74344;SDS011;62776;50.518;6.732;2023-04-03T13:30:24;3.53;;;3.22;;
74344;SDS011;62776;50.518;6.732;2023-04-03T13:33:38;2.60;;;1.30;;
74344;SDS011;62776;50.518;6.732;2023-04-03T13:36:39;1.77;;;1.23;;
74344;SDS011;62776;50.518;6.732;2023-04-03T13:39:30;1.45;;;1.25;;
74344;SDS011;62776;50.518;6.732;2023-04-03T13:42:27;1.35;;;1.20;;
74344;SDS011;62776;50.518;6.732;2023-04-03T13:45:19;2.22;;;1.52;;
74344;SDS011;62776;50.518;6.732;2023-04-03T13:48:10;2.15;;;1.30;;
74344;SDS011;62776;50.518;6.732;2023-04-03T13:51:26;1.20;;;1.10;;
74344;SDS011;62776;50.518;6.732;2023-04-03T13:54:31;2.75;;;1.38;;
74344;SDS011;62776;50.518;6.732;2023-04-03T13:57:28;1.88;;;1.40;;
74344;SDS011;62776;50.518;6.732;2023-04-03T14:00:19;1.95;;;1.73;;
74344;SDS011;62776;50.518;6.732;2023-04-03T14:06:39;1.23;;;1.13;;
74344;SDS011;62776;50.518;6.732;2023-04-03T14:09:26;1.13;;;1.10;;
74344;SDS011;62776;50.518;6.732;2023-04-03T14:15:31;1.23;;;1.13;;
74344;SDS011;62776;50.518;6.732;2023-04-03T14:18:18;3.47;;;1.48;;
74344;SDS011;62776;50.518;6.732;2023-04-03T14:21:09;2.00;;;1.30;;
74344;SDS011;62776;50.518;6.732;2023-04-03T14:23:57;2.50;;;1.30;;
74344;SDS011;62776;50.518;6.732;2023-04-03T14:26:44;2.47;;;1.35;;
74344;SDS011;62776;50.518;6.732;2023-04-03T14:29:31;2.53;;;1.13;;
74344;SDS011;62776;50.518;6.732;2023-04-03T14:32:18;1.70;;;1.30;;
74344;SDS011;62776;50.518;6.732;2023-04-03T14:35:08;1.02;;;0.93;;
74344;SDS011;62776;50.518;6.732;2023-04-03T14:38:05;1.25;;;1.00;;
74344;SDS011;62776;50.518;6.732;2023-04-03T14:41:06;1.15;;;1.15;;
74344;SDS011;62776;50.518;6.732;2023-04-03T14:44:00;1.45;;;1.35;;
74344;SDS011;62776;50.518;6.732;2023-04-03T14:46:48;1.85;;;1.20;;
74344;SDS011;62776;50.518;6.732;2023-04-03T14:49:49;2.17;;;1.58;;
74344;SDS011;62776;50.518;6.732;2023-04-03T14:52:37;2.78;;;1.60;;
74344;SDS011;62776;50.518;6.732;2023-04-03T14:55:25;1.75;;;1.08;;
74344;SDS011;62776;50.518;6.732;2023-04-03T14:58:19;1.37;;;1.23;;
74344;SDS011;62776;50.518;6.732;2023-04-03T15:01:08;1.30;;;1.20;;
74344;SDS011;62776;50.518;6.732;2023-04-03T15:04:01;2.63;;;1.70;;
74344;SDS011;62776;50.518;6.732;2023-04-03T15:06:50;2.40;;;1.60;;
74344;SDS011;62776;50.518;6.732;2023-04-03T15:09:38;2.47;;;1.33;;
74344;SDS011;62776;50.518;6.732;2023-04-03T15:12:25;1.98;;;1.02;;
74344;SDS011;62776;50.518;6.732;2023-04-03T15:15:15;1.83;;;1.50;;
74344;SDS011;62776;50.518;6.732;2023-04-03T15:18:03;1.80;;;1.10;;
74344;SDS011;62776;50.518;6.732;2023-04-03T15:20:51;1.50;;;1.40;;
74344;SDS011;62776;50.518;6.732;2023-04-03T15:23:38;2.08;;;1.40;;
74344;SDS011;62776;50.518;6.732;2023-04-03T15:26:27;1.23;;;0.90;;
74344;SDS011;62776;50.518;6.732;2023-04-03T15:29:13;1.17;;;1.10;;
74344;SDS011;62776;50.518;6.732;2023-04-03T15:32:06;2.13;;;1.55;;
74344;SDS011;62776;50.518;6.732;2023-04-03T15:35:02;2.67;;;1.23;;
74344;SDS011;62776;50.518;6.732;2023-04-03T15:37:49;1.20;;;1.10;;
74344;SDS011;62776;50.518;6.732;2023-04-03T15:40:43;1.35;;;1.13;;
74344;SDS011;62776;50.518;6.732;2023-04-03T15:43:31;1.98;;;1.38;;
74344;SDS011;62776;50.518;6.732;2023-04-03T15:46:19;1.88;;;1.33;;
74344;SDS011;62776;50.518;6.732;2023-04-03T15:49:05;1.83;;;1.65;;
74344;SDS011;62776;50.518;6.732;2023-04-03T15:51:52;1.63;;;1.00;;
74344;SDS011;62776;50.518;6.732;2023-04-03T15:54:39;3.60;;;1.20;;
74344;SDS011;62776;50.518;6.732;2023-04-03T15:57:27;2.08;;;1.60;;
74344;SDS011;62776;50.518;6.732;2023-04-03T16:00:14;2.75;;;2.45;;
74344;SDS011;62776;50.518;6.732;2023-04-03T16:03:11;2.00;;;1.80;;
74344;SDS011;62776;50.518;6.732;2023-04-03T16:06:07;1.92;;;1.42;;
74344;SDS011;62776;50.518;6.732;2023-04-03T16:08:54;3.42;;;2.58;;
74344;SDS011;62776;50.518;6.732;2023-04-03T16:11:50;2.00;;;1.80;;
74344;SDS011;62776;50.518;6.732;2023-04-03T16:14:37;3.20;;;1.88;;
74344;SDS011;62776;50.518;6.732;2023-04-03T16:17:24;3.55;;;2.60;;
74344;SDS011;62776;50.518;6.732;2023-04-03T16:20:13;2.97;;;2.47;;
74344;SDS011;62776;50.518;6.732;2023-04-03T16:23:10;1.92;;;1.33;;
74344;SDS011;62776;50.518;6.732;2023-04-03T16:26:01;2.20;;;1.75;;
74344;SDS011;62776;50.518;6.732;2023-04-03T16:28:47;1.77;;;1.48;;
74344;SDS011;62776;50.518;6.732;2023-04-03T16:31:34;1.95;;;1.55;;
74344;SDS011;62776;50.518;6.732;2023-04-03T16:34:36;2.33;;;1.30;;
74344;SDS011;62776;50.518;6.732;2023-04-03T16:37:32;2.22;;;1.60;;
74344;SDS011;62776;50.518;6.732;2023-04-03T16:40:21;1.73;;;1.25;;
74344;SDS011;62776;50.518;6.732;2023-04-03T16:43:20;3.03;;;1.50;;
74344;SDS011;62776;50.518;6.732;2023-04-03T16:46:08;1.83;;;1.55;;
74344;SDS011;62776;50.518;6.732;2023-04-03T16:48:55;2.20;;;1.50;;
74344;SDS011;62776;50.518;6.732;2023-04-03T16:51:52;3.58;;;1.95;;
74344;SDS011;62776;50.518;6.732;2023-04-03T16:54:40;4.32;;;2.80;;
74344;SDS011;62776;50.518;6.732;2023-04-03T16:57:27;2.20;;;1.77;;
74344;SDS011;62776;50.518;6.732;2023-04-03T17:00:14;3.67;;;2.85;;
74344;SDS011;62776;50.518;6.732;2023-04-03T17:03:01;1.73;;;1.63;;
74344;SDS011;62776;50.518;6.732;2023-04-03T17:05:51;3.65;;;1.40;;
74344;SDS011;62776;50.518;6.732;2023-04-03T17:08:40;1.75;;;1.60;;
74344;SDS011;62776;50.518;6.732;2023-04-03T17:15:38;2.87;;;1.80;;
74344;SDS011;62776;50.518;6.732;2023-04-03T17:18:33;1.90;;;1.67;;
74344;SDS011;62776;50.518;6.732;2023-04-03T17:33:57;2.57;;;1.87;;
74344;SDS011;62776;50.518;6.732;2023-04-03T17:41:30;2.13;;;1.77;;
74344;SDS011;62776;50.518;6.732;2023-04-03T17:52:12;1.60;;;1.10;;
74344;SDS011;62776;50.518;6.732;2023-04-03T17:59:24;1.20;;;1.10;;
74344;SDS011;62776;50.518;6.732;2023-04-03T18:13:44;1.63;;;1.42;;
74344;SDS011;62776;50.518;6.732;2023-04-03T18:16:53;3.40;;;1.48;;
74344;SDS011;62776;50.518;6.732;2023-04-03T18:19:44;2.45;;;1.73;;
74344;SDS011;62776;50.518;6.732;2023-04-03T18:22:38;1.50;;;1.20;;
74344;SDS011;62776;50.518;6.732;2023-04-03T18:25:30;2.75;;;1.58;;
74344;SDS011;62776;50.518;6.732;2023-04-03T18:28:31;2.20;;;1.60;;
74344;SDS011;62776;50.518;6.732;2023-04-03T18:31:55;1.83;;;1.10;;
74344;SDS011;62776;50.518;6.732;2023-04-03T18:35:07;1.77;;;1.60;;
74344;SDS011;62776;50.518;6.732;2023-04-03T18:38:28;1.98;;;1.50;;
74344;SDS011;62776;50.518;6.732;2023-04-03T18:41:24;2.97;;;1.92;;
74344;SDS011;62776;50.518;6.732;2023-04-03T18:51:56;4.50;;;2.03;;
74344;SDS011;62776;50.518;6.732;2023-04-03T18:54:42;2.25;;;1.48;;
74344;SDS011;62776;50.518;6.732;2023-04-03T18:57:48;2.03;;;1.42;;
74344;SDS011;62776;50.518;6.732;2023-04-03T19:00:54;2.08;;;1.20;;
74344;SDS011;62776;50.518;6.732;2023-04-03T19:04:02;2.47;;;1.35;;
74344;SDS011;62776;50.518;6.732;2023-04-03T19:06:48;1.58;;;1.17;;
74344;SDS011;62776;50.518;6.732;2023-04-03T19:09:55;2.17;;;1.52;;
74344;SDS011;62776;50.518;6.732;2023-04-03T19:12:45;1.63;;;1.35;;
74344;SDS011;62776;50.518;6.732;2023-04-03T19:15:32;1.70;;;1.48;;
74344;SDS011;62776;50.518;6.732;2023-04-03T19:18:21;2.22;;;1.42;;
74344;SDS011;62776;50.518;6.732;2023-04-03T19:21:09;4.60;;;1.50;;
74344;SDS011;62776;50.518;6.732;2023-04-03T19:23:58;1.35;;;1.20;;
74344;SDS011;62776;50.518;6.732;2023-04-03T19:26:45;1.52;;;1.40;;
74344;SDS011;62776;50.518;6.732;2023-04-03T19:29:33;1.45;;;1.35;;